Time;durP1;ratioP1;P1;durP2;ratioP2;P2;SDS_P1;SDS_P2;PMS_P1;PMS_P2;Temp;Humidity;BMP_temperature;BMP_pressure;BME280_temperature;BME280_humidity;BME280_pressure;Samples;Min_cycle;Max_cycle;Signal;HPM_P1;HPM_P2
2023/04/23 00:01:38;;;;;;;265.67;74.10;;;;;;;;;;5060931;28;20052;-62
2023/04/23 00:04:05;;;;;;;269.33;75.23;;;;;;;;;;5060407;28;20610;-62
2023/04/23 00:06:32;;;;;;;218.63;69.10;;;;;;;;;;5054851;28;20045;-62
2023/04/23 00:08:59;;;;;;;268.07;79.10;;;;;;;;;;5061397;28;20043;-62
2023/04/23 00:11:25;;;;;;;337.10;82.37;;;;;;;;;;5055033;28;20041;-62
2023/04/23 00:13:52;;;;;;;287.47;77.87;;;;;;;;;;5059404;28;20041;-62
2023/04/23 00:16:19;;;;;;;292.87;80.17;;;;;;;;;;5055400;28;20044;-62
2023/04/23 00:18:45;;;;;;;336.87;79.73;;;;;;;;;;5057582;28;20044;-63
2023/04/23 00:21:11;;;;;;;296.77;78.00;;;;;;;;;;5054481;28;20105;-63
2023/04/23 00:23:38;;;;;;;251.13;75.10;;;;;;;;;;5053859;28;20050;-62
2023/04/23 00:26:04;;;;;;;280.10;83.70;;;;;;;;;;5053434;28;20055;-63
2023/04/23 00:28:30;;;;;;;304.23;87.53;;;;;;;;;;5054778;28;20041;-62
2023/04/23 00:30:56;;;;;;;274.77;85.60;;;;;;;;;;5054634;28;20049;-63
2023/04/23 00:33:22;;;;;;;299.00;90.20;;;;;;;;;;5060591;28;20044;-62
2023/04/23 00:35:48;;;;;;;284.53;83.57;;;;;;;;;;5054239;28;20056;-62
2023/04/23 00:38:14;;;;;;;281.87;85.63;;;;;;;;;;5054951;28;20044;-63
2023/04/23 00:40:40;;;;;;;265.57;85.90;;;;;;;;;;5057600;28;20044;-62
2023/04/23 00:43:08;;;;;;;318.90;93.30;;;;;;;;;;5053525;28;20048;-62
2023/04/23 00:45:34;;;;;;;331.60;92.20;;;;;;;;;;5055387;28;20119;-62
2023/04/23 00:48:01;;;;;;;291.17;91.93;;;;;;;;;;5058108;28;20033;-62
2023/04/23 00:50:27;;;;;;;355.83;98.00;;;;;;;;;;5058539;28;20142;-62
2023/04/23 00:52:54;;;;;;;331.23;94.80;;;;;;;;;;5055504;28;20415;-63
2023/04/23 00:55:20;;;;;;;335.47;100.33;;;;;;;;;;5048583;28;20120;-63
2023/04/23 00:57:47;;;;;;;416.43;110.13;;;;;;;;;;5052258;28;20052;-63
2023/04/23 01:00:13;;;;;;;383.87;105.80;;;;;;;;;;5051942;28;20517;-62
2023/04/23 01:02:41;;;;;;;345.67;100.47;;;;;;;;;;5052105;28;20056;-62
2023/04/23 01:05:08;;;;;;;417.40;109.47;;;;;;;;;;5051036;28;20515;-63
2023/04/23 01:07:35;;;;;;;378.83;106.37;;;;;;;;;;5051701;28;20053;-62
2023/04/23 01:10:01;;;;;;;339.20;102.63;;;;;;;;;;5051827;28;20531;-62
2023/04/23 01:12:27;;;;;;;467.20;119.40;;;;;;;;;;5052197;28;20055;-63
2023/04/23 01:14:53;;;;;;;399.93;109.83;;;;;;;;;;5054312;28;20048;-63
2023/04/23 01:17:20;;;;;;;469.90;120.13;;;;;;;;;;5060367;28;20608;-63
2023/04/23 01:19:46;;;;;;;428.57;113.03;;;;;;;;;;5051644;28;20071;-63
2023/04/23 01:22:13;;;;;;;390.00;110.13;;;;;;;;;;5058047;28;20048;-62
2023/04/23 01:24:40;;;;;;;409.90;117.13;;;;;;;;;;5065136;28;20500;-63
2023/04/23 01:27:06;;;;;;;409.03;111.03;;;;;;;;;;5049701;28;20049;-62
2023/04/23 01:29:32;;;;;;;394.63;111.60;;;;;;;;;;5050699;28;20130;-63
2023/04/23 01:31:59;;;;;;;393.70;113.17;;;;;;;;;;5051822;28;20045;-63
2023/04/23 01:34:25;;;;;;;348.50;104.30;;;;;;;;;;5051384;28;20128;-63
2023/04/23 01:36:52;;;;;;;451.90;120.90;;;;;;;;;;5050902;28;20053;-62
2023/04/23 01:39:18;;;;;;;391.80;111.73;;;;;;;;;;5050732;28;20049;-62
2023/04/23 01:41:44;;;;;;;435.90;120.73;;;;;;;;;;5050234;28;20502;-63
2023/04/23 01:44:10;;;;;;;354.37;108.63;;;;;;;;;;5049365;28;20529;-63
2023/04/23 01:46:36;;;;;;;354.77;106.77;;;;;;;;;;5050891;28;20037;-62
2023/04/23 01:49:03;;;;;;;439.93;120.33;;;;;;;;;;5051606;28;20075;-62
2023/04/23 01:51:29;;;;;;;376.30;114.53;;;;;;;;;;5049512;28;20049;-62
2023/04/23 01:53:56;;;;;;;388.23;113.27;;;;;;;;;;5050328;28;20132;-62
2023/04/23 01:56:25;;;;;;;408.50;116.33;;;;;;;;;;5050838;28;20041;-62
2023/04/23 01:58:51;;;;;;;397.13;118.90;;;;;;;;;;5050777;28;20582;-62
2023/04/23 02:01:17;;;;;;;388.43;116.57;;;;;;;;;;5051165;28;20060;-62
2023/04/23 02:03:43;;;;;;;442.33;124.07;;;;;;;;;;5050124;28;20049;-63
2023/04/23 02:06:09;;;;;;;434.57;122.03;;;;;;;;;;5050814;28;20502;-62
2023/04/23 02:08:35;;;;;;;433.03;120.97;;;;;;;;;;5049790;28;20049;-62
2023/04/23 02:11:02;;;;;;;416.03;118.07;;;;;;;;;;5049660;28;20053;-63
2023/04/23 02:13:28;;;;;;;429.70;124.03;;;;;;;;;;5050953;28;20521;-62
2023/04/23 02:15:54;;;;;;;488.93;132.07;;;;;;;;;;5049726;28;20125;-62
2023/04/23 02:18:20;;;;;;;496.73;136.57;;;;;;;;;;5050384;28;20049;-63
2023/04/23 02:20:46;;;;;;;554.90;142.03;;;;;;;;;;5050104;28;20037;-63
2023/04/23 02:23:12;;;;;;;727.20;162.67;;;;;;;;;;5051044;28;20052;-63
2023/04/23 02:25:38;;;;;;;663.93;157.70;;;;;;;;;;5050083;28;20056;-62
2023/04/23 02:28:07;;;;;;;1248.50;225.63;;;;;;;;;;5049918;28;20198;-62
2023/04/23 02:30:34;;;;;;;1110.10;207.70;;;;;;;;;;5049919;28;20056;-63
2023/04/23 02:33:00;;;;;;;1397.60;224.60;;;;;;;;;;5050071;28;20087;-63
2023/04/23 02:35:26;;;;;;;1329.27;226.97;;;;;;;;;;5050464;28;20048;-63
2023/04/23 02:37:53;;;;;;;1462.40;245.23;;;;;;;;;;5050008;28;20037;-62
2023/04/23 02:40:19;;;;;;;1484.70;234.97;;;;;;;;;;5049842;28;20040;-63
2023/04/23 02:42:45;;;;;;;1684.17;254.77;;;;;;;;;;5047898;28;20048;-62
2023/04/23 02:45:11;;;;;;;1680.37;247.77;;;;;;;;;;5049084;28;20053;-63
2023/04/23 02:47:38;;;;;;;1675.90;252.17;;;;;;;;;;5050113;28;20053;-62
2023/04/23 02:50:05;;;;;;;1554.83;244.67;;;;;;;;;;5049843;28;20513;-62
2023/04/23 02:52:31;;;;;;;1661.27;258.53;;;;;;;;;;5049281;28;20049;-63
2023/04/23 02:54:58;;;;;;;1362.17;228.07;;;;;;;;;;5049356;28;20051;-62
2023/04/23 02:57:24;;;;;;;1099.53;199.73;;;;;;;;;;5050234;28;20049;-62
2023/04/23 02:59:50;;;;;;;1212.23;214.13;;;;;;;;;;5049544;28;20502;-62
2023/04/23 03:02:16;;;;;;;1165.60;204.83;;;;;;;;;;5049739;28;20527;-62
2023/04/23 03:04:42;;;;;;;1150.90;205.57;;;;;;;;;;5048508;28;20071;-63
2023/04/23 03:07:08;;;;;;;1443.23;230.40;;;;;;;;;;5049652;28;20045;-62
2023/04/23 03:09:34;;;;;;;1580.23;244.43;;;;;;;;;;5048876;28;20080;-64
2023/04/23 03:12:01;;;;;;;1451.27;231.43;;;;;;;;;;5049693;28;20055;-63
2023/04/23 03:14:27;;;;;;;1352.17;216.87;;;;;;;;;;5050202;28;20085;-63
2023/04/23 03:16:53;;;;;;;1261.37;214.43;;;;;;;;;;5049255;28;20060;-62
2023/04/23 03:19:19;;;;;;;1587.57;237.37;;;;;;;;;;5048884;28;20103;-63
2023/04/23 03:21:45;;;;;;;1615.97;247.87;;;;;;;;;;5048764;28;20041;-63
2023/04/23 03:24:13;;;;;;;1447.63;235.70;;;;;;;;;;5049336;28;20064;-64
2023/04/23 03:26:40;;;;;;;1285.30;221.57;;;;;;;;;;5048897;28;20057;-63
2023/04/23 03:29:06;;;;;;;1185.87;208.87;;;;;;;;;;5049065;28;20064;-62
2023/04/23 03:31:32;;;;;;;971.37;192.97;;;;;;;;;;5049447;28;20045;-63
2023/04/23 03:33:58;;;;;;;976.70;190.80;;;;;;;;;;5052256;28;20098;-62
2023/04/23 03:36:24;;;;;;;973.87;191.40;;;;;;;;;;5068987;28;20053;-63
2023/04/23 03:38:50;;;;;;;773.80;172.37;;;;;;;;;;5068726;28;20580;-62
2023/04/23 03:41:16;;;;;;;927.07;185.13;;;;;;;;;;5068814;28;20041;-63
2023/04/23 03:43:42;;;;;;;838.60;181.70;;;;;;;;;;5068517;28;20057;-62
2023/04/23 03:46:08;;;;;;;842.03;177.77;;;;;;;;;;5061681;28;20048;-63
2023/04/23 03:48:34;;;;;;;900.97;183.93;;;;;;;;;;5048716;28;20118;-62
2023/04/23 03:51:00;;;;;;;736.40;161.60;;;;;;;;;;5047750;28;20095;-62
2023/04/23 03:53:27;;;;;;;912.00;183.30;;;;;;;;;;5048912;28;20090;-62
2023/04/23 03:55:53;;;;;;;877.70;181.60;;;;;;;;;;5048545;28;20059;-62
2023/04/23 03:58:19;;;;;;;853.67;171.93;;;;;;;;;;5048873;28;20906;-63
2023/04/23 04:00:46;;;;;;;881.97;176.23;;;;;;;;;;5047704;28;20123;-63
2023/04/23 04:03:12;;;;;;;750.47;158.47;;;;;;;;;;5048341;28;20059;-62
2023/04/23 04:05:38;;;;;;;744.10;160.80;;;;;;;;;;5057575;28;20040;-63
2023/04/23 04:08:04;;;;;;;776.07;165.10;;;;;;;;;;5068450;28;20045;-63
2023/04/23 04:10:30;;;;;;;856.67;180.63;;;;;;;;;;5068703;28;20044;-62
2023/04/23 04:12:56;;;;;;;794.50;173.70;;;;;;;;;;5068088;28;20563;-63
2023/04/23 04:15:22;;;;;;;906.00;183.67;;;;;;;;;;5066053;28;20128;-62
2023/04/23 04:17:48;;;;;;;752.10;164.67;;;;;;;;;;5068646;28;20044;-63
2023/04/23 04:20:14;;;;;;;751.97;170.60;;;;;;;;;;5068425;28;20423;-63
2023/04/23 04:22:40;;;;;;;763.07;172.93;;;;;;;;;;5058414;28;20046;-62
2023/04/23 04:25:06;;;;;;;647.50;155.67;;;;;;;;;;5048545;28;20388;-63
2023/04/23 04:27:33;;;;;;;535.87;142.70;;;;;;;;;;5048299;28;20045;-63
2023/04/23 04:30:00;;;;;;;650.63;154.50;;;;;;;;;;5060033;28;20542;-63
2023/04/23 04:32:26;;;;;;;527.93;138.60;;;;;;;;;;5061913;28;20040;-63
2023/04/23 04:34:53;;;;;;;466.03;129.57;;;;;;;;;;5072007;28;20044;-62
2023/04/23 04:37:20;;;;;;;520.53;134.70;;;;;;;;;;5072190;28;20147;-62
2023/04/23 04:39:46;;;;;;;444.33;129.90;;;;;;;;;;5062613;28;20048;-65
2023/04/23 04:42:12;;;;;;;482.53;132.87;;;;;;;;;;5062719;28;20049;-63
2023/04/23 04:44:38;;;;;;;540.70;139.00;;;;;;;;;;5056158;28;20045;-63
2023/04/23 04:47:06;;;;;;;419.83;118.10;;;;;;;;;;5067103;28;20499;-63
2023/04/23 04:49:32;;;;;;;470.47;128.47;;;;;;;;;;5068157;28;20052;-62
2023/04/23 04:51:58;;;;;;;399.37;115.83;;;;;;;;;;5051546;28;20052;-63
2023/04/23 04:54:24;;;;;;;453.60;124.53;;;;;;;;;;5051712;28;20049;-63
2023/04/23 04:56:50;;;;;;;410.90;119.70;;;;;;;;;;5060641;28;20041;-63
2023/04/23 04:59:16;;;;;;;456.80;126.23;;;;;;;;;;5071722;28;20052;-63
2023/04/23 05:01:43;;;;;;;420.10;116.10;;;;;;;;;;5071785;28;20498;-64
2023/04/23 05:04:09;;;;;;;430.30;119.27;;;;;;;;;;5071541;28;20045;-63
2023/04/23 05:06:35;;;;;;;438.17;121.10;;;;;;;;;;5071659;28;20048;-63
2023/04/23 05:09:01;;;;;;;353.83;107.53;;;;;;;;;;5052445;28;20037;-63
2023/04/23 05:11:27;;;;;;;404.17;112.90;;;;;;;;;;5051172;28;20040;-63
2023/04/23 05:13:53;;;;;;;368.50;109.70;;;;;;;;;;5062723;28;20707;-63
2023/04/23 05:16:19;;;;;;;351.93;106.00;;;;;;;;;;5071404;28;20251;-63
2023/04/23 05:18:45;;;;;;;317.00;100.97;;;;;;;;;;5071418;28;20070;-63
2023/04/23 05:21:11;;;;;;;349.20;102.93;;;;;;;;;;5070895;28;20056;-63
2023/04/23 05:23:37;;;;;;;357.37;105.13;;;;;;;;;;5057433;28;20426;-63
2023/04/23 05:26:03;;;;;;;291.97;97.07;;;;;;;;;;5051375;28;20088;-63
2023/04/23 05:28:30;;;;;;;299.67;96.53;;;;;;;;;;5050753;28;20071;-63
2023/04/23 05:30:57;;;;;;;317.27;98.07;;;;;;;;;;5056933;28;20049;-63
2023/04/23 05:33:23;;;;;;;287.13;90.57;;;;;;;;;;5050681;28;20136;-63
2023/04/23 05:35:49;;;;;;;270.90;92.23;;;;;;;;;;5058700;28;20040;-63
2023/04/23 05:38:15;;;;;;;285.43;91.47;;;;;;;;;;5068419;28;20041;-63
2023/04/23 05:40:42;;;;;;;275.97;93.30;;;;;;;;;;5057528;28;20074;-63
2023/04/23 05:43:08;;;;;;;274.23;88.77;;;;;;;;;;5053083;28;20053;-63
2023/04/23 05:45:34;;;;;;;236.80;85.87;;;;;;;;;;5070270;28;20106;-63
2023/04/23 05:48:00;;;;;;;240.80;87.93;;;;;;;;;;5065279;28;20044;-63
2023/04/23 05:50:27;;;;;;;231.80;84.03;;;;;;;;;;5065647;28;20044;-63
2023/04/23 05:52:53;;;;;;;231.03;84.77;;;;;;;;;;5060761;28;20098;-63
2023/04/23 05:55:20;;;;;;;235.60;84.50;;;;;;;;;;5065334;28;20044;-63
2023/04/23 05:57:46;;;;;;;221.33;81.70;;;;;;;;;;5055861;28;20056;-64
2023/04/23 06:00:12;;;;;;;204.17;81.50;;;;;;;;;;5058922;28;20080;-63
2023/04/23 06:02:39;;;;;;;211.13;80.43;;;;;;;;;;5064212;28;20059;-63
2023/04/23 06:05:06;;;;;;;219.30;80.87;;;;;;;;;;5057919;28;20431;-63
2023/04/23 06:07:32;;;;;;;239.43;85.13;;;;;;;;;;5050687;28;20052;-63
2023/04/23 06:09:58;;;;;;;199.27;78.57;;;;;;;;;;5057244;28;20146;-63
2023/04/23 06:12:25;;;;;;;183.47;73.70;;;;;;;;;;5062333;28;20147;-63
2023/04/23 06:14:52;;;;;;;181.47;73.13;;;;;;;;;;5070028;28;20094;-63
2023/04/23 06:17:18;;;;;;;175.60;73.97;;;;;;;;;;5051165;28;20045;-63
2023/04/23 06:19:44;;;;;;;201.13;78.43;;;;;;;;;;5055433;28;20045;-63
2023/04/23 06:22:10;;;;;;;170.27;72.87;;;;;;;;;;5067727;28;20094;-63
2023/04/23 06:24:37;;;;;;;155.27;69.60;;;;;;;;;;5054550;28;20090;-63
2023/04/23 06:27:03;;;;;;;158.07;69.07;;;;;;;;;;5069676;28;20423;-62
2023/04/23 06:29:29;;;;;;;172.97;71.17;;;;;;;;;;5062701;28;20458;-62
2023/04/23 06:31:55;;;;;;;160.70;67.47;;;;;;;;;;5067189;28;20044;-63
2023/04/23 06:34:22;;;;;;;156.83;67.37;;;;;;;;;;5069908;28;20037;-63
2023/04/23 06:36:48;;;;;;;148.67;65.43;;;;;;;;;;5069864;28;20048;-63
2023/04/23 06:39:14;;;;;;;136.93;63.07;;;;;;;;;;5064773;28;20503;-63
2023/04/23 06:41:40;;;;;;;129.53;61.93;;;;;;;;;;5049606;28;20544;-63
2023/04/23 06:44:06;;;;;;;115.43;57.87;;;;;;;;;;5050052;28;20060;-63
2023/04/23 06:46:32;;;;;;;125.57;57.70;;;;;;;;;;5055518;28;20048;-63
2023/04/23 06:48:58;;;;;;;142.53;64.03;;;;;;;;;;5066688;28;20052;-63
2023/04/23 06:51:27;;;;;;;129.13;60.87;;;;;;;;;;5069500;28;20048;-63
2023/04/23 06:53:54;;;;;;;129.80;60.30;;;;;;;;;;5067321;28;20056;-63
2023/04/23 06:56:20;;;;;;;109.10;56.57;;;;;;;;;;5066495;28;20048;-63
2023/04/23 06:58:46;;;;;;;107.10;54.47;;;;;;;;;;5056862;28;20109;-63
2023/04/23 07:01:13;;;;;;;103.77;53.57;;;;;;;;;;5069755;28;20036;-63
2023/04/23 07:03:42;;;;;;;101.67;54.93;;;;;;;;;;5054769;28;20080;-63
2023/04/23 07:06:09;;;;;;;87.90;50.23;;;;;;;;;;5049552;28;20476;-63
2023/04/23 07:08:35;;;;;;;87.03;48.00;;;;;;;;;;5049287;28;20510;-63
2023/04/23 07:11:01;;;;;;;80.80;45.97;;;;;;;;;;5048744;28;20048;-63
2023/04/23 07:13:27;;;;;;;88.50;49.53;;;;;;;;;;5049183;28;20057;-63
2023/04/23 07:15:53;;;;;;;83.77;49.07;;;;;;;;;;5047762;28;20442;-63
2023/04/23 07:18:19;;;;;;;92.33;47.27;;;;;;;;;;5061494;28;20053;-63
2023/04/23 07:20:45;;;;;;;81.60;47.03;;;;;;;;;;5066972;28;20418;-63
2023/04/23 07:23:11;;;;;;;83.70;46.03;;;;;;;;;;5068915;28;20044;-63
2023/04/23 07:25:37;;;;;;;73.60;44.17;;;;;;;;;;5068697;28;20045;-63
2023/04/23 07:28:04;;;;;;;74.33;44.30;;;;;;;;;;5068451;28;20131;-63
2023/04/23 07:30:30;;;;;;;66.50;41.20;;;;;;;;;;5068813;28;20448;-63
2023/04/23 07:32:56;;;;;;;64.00;40.20;;;;;;;;;;5068075;28;20051;-63
2023/04/23 07:35:22;;;;;;;57.07;38.80;;;;;;;;;;5061880;28;20766;-63
2023/04/23 07:37:52;;;;;;;53.87;36.70;;;;;;;;;;5058569;28;20041;-63
2023/04/23 07:40:19;;;;;;;59.97;36.67;;;;;;;;;;5063235;28;20167;-63
2023/04/23 07:42:45;;;;;;;62.10;37.10;;;;;;;;;;5065864;28;20049;-63
2023/04/23 07:45:11;;;;;;;49.57;35.57;;;;;;;;;;5057364;28;20044;-62
2023/04/23 07:47:37;;;;;;;55.13;36.37;;;;;;;;;;5059210;28;20044;-63
2023/04/23 07:50:04;;;;;;;43.33;32.03;;;;;;;;;;5051886;28;20037;-63
2023/04/23 07:52:30;;;;;;;46.43;33.50;;;;;;;;;;5066096;28;20094;-63
2023/04/23 07:54:56;;;;;;;43.07;32.10;;;;;;;;;;5068548;28;20131;-62
2023/04/23 07:57:22;;;;;;;41.73;30.03;;;;;;;;;;5068576;28;20501;-63
2023/04/23 07:59:48;;;;;;;41.30;28.67;;;;;;;;;;5068351;28;20043;-63
2023/04/23 08:02:14;;;;;;;44.37;31.27;;;;;;;;;;5068728;28;20049;-63
2023/04/23 08:04:40;;;;;;;40.33;29.67;;;;;;;;;;5050487;28;20045;-63
2023/04/23 08:07:06;;;;;;;37.53;27.73;;;;;;;;;;5057230;28;20090;-63
2023/04/23 08:09:32;;;;;;;36.23;26.93;;;;;;;;;;5068515;28;20090;-64
2023/04/23 08:11:58;;;;;;;30.67;23.97;;;;;;;;;;5056476;28;20503;-62
2023/04/23 08:14:24;;;;;;;33.03;24.50;;;;;;;;;;5048535;28;20056;-63
2023/04/23 08:16:50;;;;;;;30.40;24.43;;;;;;;;;;5067369;28;20080;-63
2023/04/23 08:19:16;;;;;;;31.70;22.70;;;;;;;;;;5067850;28;20154;-63
2023/04/23 08:21:42;;;;;;;28.33;21.00;;;;;;;;;;5064350;28;20051;-63
2023/04/23 08:24:08;;;;;;;26.77;20.70;;;;;;;;;;5051942;28;20041;-63
2023/04/23 08:26:34;;;;;;;26.03;19.73;;;;;;;;;;5049888;28;20052;-63
2023/04/23 08:29:01;;;;;;;24.57;21.37;;;;;;;;;;5056579;28;20060;-63
2023/04/23 08:31:28;;;;;;;28.40;20.67;;;;;;;;;;5048353;28;20090;-63
2023/04/23 08:33:54;;;;;;;28.03;19.97;;;;;;;;;;5047697;28;20048;-63
2023/04/23 08:36:20;;;;;;;24.60;20.73;;;;;;;;;;5047104;28;20311;-63
2023/04/23 08:38:46;;;;;;;27.03;18.23;;;;;;;;;;5048120;28;20049;-63
2023/04/23 08:41:14;;;;;;;24.53;17.70;;;;;;;;;;5050379;28;20041;-63
2023/04/23 08:43:42;;;;;;;24.33;16.37;;;;;;;;;;5047414;28;20056;-63
2023/04/23 08:46:11;;;;;;;22.10;17.83;;;;;;;;;;5048025;28;20465;-62
2023/04/23 08:48:38;;;;;;;20.60;16.83;;;;;;;;;;5047625;28;20045;-63
2023/04/23 08:51:05;;;;;;;20.50;15.90;;;;;;;;;;5048031;28;20048;-62
2023/04/23 08:53:31;;;;;;;19.23;14.40;;;;;;;;;;5047855;28;20049;-62
2023/04/23 08:55:57;;;;;;;20.40;13.67;;;;;;;;;;5047625;28;20415;-63
2023/04/23 08:58:26;;;;;;;20.07;13.27;;;;;;;;;;5048262;28;20057;-63
2023/04/23 09:00:53;;;;;;;17.23;13.17;;;;;;;;;;5047946;28;20041;-62
2023/04/23 09:03:19;;;;;;;18.93;13.13;;;;;;;;;;5047622;28;20103;-62
2023/04/23 09:05:46;;;;;;;20.80;13.57;;;;;;;;;;5047948;28;20261;-62
2023/04/23 09:08:12;;;;;;;19.47;13.67;;;;;;;;;;5048171;28;20045;-62
2023/04/23 09:10:40;;;;;;;18.50;12.47;;;;;;;;;;5046666;28;20411;-62
2023/04/23 09:13:06;;;;;;;17.03;11.53;;;;;;;;;;5047897;28;20570;-62
2023/04/23 09:15:37;;;;;;;17.50;11.43;;;;;;;;;;5067595;28;20044;-62
2023/04/23 09:18:03;;;;;;;16.37;10.27;;;;;;;;;;5070713;28;20173;-62
2023/04/23 09:20:29;;;;;;;13.47;10.23;;;;;;;;;;5070284;28;20472;-62
2023/04/23 09:22:55;;;;;;;17.00;9.10;;;;;;;;;;5070987;28;20044;-62
2023/04/23 09:25:22;;;;;;;14.33;7.67;;;;;;;;;;5070825;28;20048;-62
2023/04/23 09:27:52;;;;;;;13.03;7.37;;;;;;;;;;5070806;28;20519;-62
2023/04/23 09:30:19;;;;;;;16.10;9.27;;;;;;;;;;5071099;28;20052;-62
2023/04/23 09:32:45;;;;;;;16.97;8.80;;;;;;;;;;5071011;28;20041;-62
2023/04/23 09:35:14;;;;;;;15.60;7.60;;;;;;;;;;5071096;28;20131;-62
2023/04/23 09:37:41;;;;;;;13.30;7.30;;;;;;;;;;5071013;28;20459;-62
2023/04/23 09:40:08;;;;;;;11.90;6.30;;;;;;;;;;5070738;28;20118;-62
2023/04/23 09:42:35;;;;;;;9.43;6.60;;;;;;;;;;5071197;28;20418;-62
2023/04/23 09:45:06;;;;;;;11.37;7.43;;;;;;;;;;5070438;28;20044;-62
2023/04/23 09:47:37;;;;;;;11.50;7.10;;;;;;;;;;5070563;28;20051;-61
2023/04/23 09:50:04;;;;;;;13.17;7.20;;;;;;;;;;5070722;28;20052;-61
2023/04/23 09:52:31;;;;;;;10.87;7.27;;;;;;;;;;5070883;28;20409;-61
2023/04/23 09:55:00;;;;;;;9.30;6.87;;;;;;;;;;5070731;28;20569;-61
2023/04/23 09:57:26;;;;;;;10.30;7.07;;;;;;;;;;5070343;28;20589;-61
2023/04/23 09:59:52;;;;;;;11.60;6.63;;;;;;;;;;5070916;28;20402;-61
2023/04/23 10:02:18;;;;;;;13.60;7.30;;;;;;;;;;5069504;28;20406;-60
2023/04/23 10:04:44;;;;;;;11.23;6.10;;;;;;;;;;5070220;28;20055;-61
2023/04/23 10:07:13;;;;;;;11.03;5.93;;;;;;;;;;5070682;28;20089;-61
2023/04/23 10:09:40;;;;;;;11.73;5.87;;;;;;;;;;5070580;28;20045;-61
2023/04/23 10:12:07;;;;;;;9.07;6.27;;;;;;;;;;5070274;28;20041;-61
2023/04/23 10:14:33;;;;;;;8.93;5.60;;;;;;;;;;5058114;28;20535;-60
2023/04/23 10:17:02;;;;;;;9.37;6.07;;;;;;;;;;5050317;28;20400;-60
2023/04/23 10:19:28;;;;;;;10.13;6.10;;;;;;;;;;5050486;28;20059;-60
2023/04/23 10:21:55;;;;;;;11.27;4.77;;;;;;;;;;5050522;28;20499;-60
2023/04/23 10:24:23;;;;;;;8.20;4.10;;;;;;;;;;5050223;28;20048;-60
2023/04/23 10:26:50;;;;;;;10.40;5.03;;;;;;;;;;5050814;28;20052;-60
2023/04/23 10:29:17;;;;;;;7.23;4.60;;;;;;;;;;5049681;28;20416;-61
2023/04/23 10:31:44;;;;;;;10.57;4.90;;;;;;;;;;5050505;28;20084;-60
2023/04/23 10:34:10;;;;;;;8.80;3.70;;;;;;;;;;5050707;28;20048;-60
2023/04/23 10:36:37;;;;;;;9.70;4.40;;;;;;;;;;5049642;28;20049;-60
2023/04/23 10:39:07;;;;;;;9.10;4.20;;;;;;;;;;5049964;28;20525;-60
2023/04/23 10:41:37;;;;;;;7.67;3.50;;;;;;;;;;5050221;28;20099;-60
2023/04/23 10:44:04;;;;;;;10.10;4.77;;;;;;;;;;5050341;28;20098;-60
2023/04/23 10:46:30;;;;;;;5.97;3.17;;;;;;;;;;5050408;28;20101;-60
2023/04/23 10:49:06;;;;;;;11.43;4.17;;;;;;;;;;5050267;28;20048;-59
2023/04/23 10:51:38;;;;;;;8.40;3.20;;;;;;;;;;5049614;28;20061;-59
2023/04/23 10:54:04;;;;;;;6.37;3.50;;;;;;;;;;5050481;28;20411;-59
2023/04/23 10:56:30;;;;;;;7.47;3.90;;;;;;;;;;5050419;28;20186;-60
2023/04/23 10:58:57;;;;;;;9.23;4.17;;;;;;;;;;5049600;28;20519;-59
2023/04/23 11:01:29;;;;;;;7.80;3.23;;;;;;;;;;5050096;28;20415;-60
2023/04/23 11:03:55;;;;;;;9.73;3.07;;;;;;;;;;5050082;28;20052;-59
2023/04/23 11:06:42;;;;;;;8.53;3.00;;;;;;;;;;5050010;28;20044;-59
2023/04/23 11:09:27;;;;;;;8.47;2.60;;;;;;;;;;5049855;28;20573;-60
2023/04/23 11:11:54;;;;;;;6.77;2.63;;;;;;;;;;5049316;28;20041;-59
2023/04/23 11:14:20;;;;;;;7.27;2.53;;;;;;;;;;5059506;28;20127;-60
2023/04/23 11:16:48;;;;;;;8.00;2.80;;;;;;;;;;5069621;28;20048;-59
2023/04/23 11:19:14;;;;;;;5.23;2.60;;;;;;;;;;5069661;28;20041;-60
2023/04/23 11:22:00;;;;;;;9.60;2.40;;;;;;;;;;5069489;28;20056;-60
2023/04/23 11:24:28;;;;;;;9.53;2.93;;;;;;;;;;5068690;28;20056;-59
2023/04/23 11:26:54;;;;;;;6.10;2.80;;;;;;;;;;5069448;28;20076;-60
2023/04/23 11:29:22;;;;;;;7.73;2.70;;;;;;;;;;5069550;28;20056;-59
2023/04/23 11:31:48;;;;;;;6.27;2.47;;;;;;;;;;5069002;28;20063;-60
2023/04/23 11:34:15;;;;;;;8.30;2.70;;;;;;;;;;5069631;28;20100;-60
2023/04/23 11:36:41;;;;;;;8.37;3.33;;;;;;;;;;5068960;28;20127;-59
2023/04/23 11:39:08;;;;;;;6.63;2.70;;;;;;;;;;5068858;28;20040;-60
2023/04/23 11:41:34;;;;;;;9.07;3.47;;;;;;;;;;5069464;28;20173;-60
2023/04/23 11:44:00;;;;;;;5.60;2.87;;;;;;;;;;5069042;28;20040;-60
2023/04/23 11:46:27;;;;;;;10.67;3.33;;;;;;;;;;5068951;28;20056;-60
2023/04/23 11:48:53;;;;;;;7.80;2.73;;;;;;;;;;5069242;28;20044;-60
2023/04/23 11:51:24;;;;;;;5.10;2.73;;;;;;;;;;5069334;28;20573;-60
2023/04/23 11:53:50;;;;;;;7.57;2.70;;;;;;;;;;5068492;28;20498;-60
2023/04/23 11:56:17;;;;;;;7.43;2.40;;;;;;;;;;5069359;28;20060;-60
2023/04/23 11:58:43;;;;;;;8.77;2.50;;;;;;;;;;5068932;28;20040;-60
2023/04/23 12:01:12;;;;;;;7.57;2.00;;;;;;;;;;5068532;28;20465;-60
2023/04/23 12:03:38;;;;;;;5.40;1.97;;;;;;;;;;5068986;28;20509;-60
2023/04/23 12:06:05;;;;;;;6.63;2.60;;;;;;;;;;5069028;28;20044;-60
2023/04/23 12:08:36;;;;;;;5.83;1.60;;;;;;;;;;5069073;28;20048;-60
2023/04/23 12:11:05;;;;;;;4.93;2.10;;;;;;;;;;5068581;28;20435;-60
2023/04/23 12:13:32;;;;;;;5.53;2.00;;;;;;;;;;5065801;28;20107;-60
2023/04/23 12:15:59;;;;;;;7.40;2.53;;;;;;;;;;5048950;28;20061;-59
2023/04/23 12:18:29;;;;;;;6.07;2.03;;;;;;;;;;5049088;28;20053;-59
2023/04/23 12:20:56;;;;;;;7.30;2.27;;;;;;;;;;5048265;28;20041;-59
2023/04/23 12:23:28;;;;;;;6.10;1.77;;;;;;;;;;5048569;28;20102;-60
2023/04/23 12:25:54;;;;;;;5.78;2.00;;;;;;;;;;5048507;28;20048;-59
2023/04/23 12:28:24;;;;;;;5.40;2.30;;;;;;;;;;5048636;28;20593;-60
2023/04/23 12:30:50;;;;;;;11.13;2.90;;;;;;;;;;5048240;28;20053;-59
2023/04/23 12:33:16;;;;;;;6.60;2.10;;;;;;;;;;5048721;28;20178;-59
2023/04/23 12:35:43;;;;;;;9.77;3.03;;;;;;;;;;5048369;28;20048;-59
2023/04/23 12:38:25;;;;;;;5.83;2.17;;;;;;;;;;5048912;28;20119;-59
2023/04/23 12:40:58;;;;;;;7.60;2.70;;;;;;;;;;5048711;28;20049;-59
2023/04/23 12:43:24;;;;;;;;;;;;;;;;;;5048618;28;20051;-59
2023/04/23 12:45:51;;;;;;;8.00;1.93;;;;;;;;;;5048554;28;19920;-60
2023/04/23 12:48:17;;;;;;;6.47;1.93;;;;;;;;;;5048470;28;20045;-59
2023/04/23 12:50:46;;;;;;;7.07;1.90;;;;;;;;;;5048293;28;20103;-59
2023/04/23 12:53:12;;;;;;;6.70;2.00;;;;;;;;;;5052704;28;20049;-59
2023/04/23 12:55:38;;;;;;;6.30;1.77;;;;;;;;;;5051821;28;20048;-59
2023/04/23 12:58:05;;;;;;;4.70;1.77;;;;;;;;;;5051042;28;20056;-60
2023/04/23 13:00:31;;;;;;;7.17;1.53;;;;;;;;;;5052478;28;20049;-59
2023/04/23 13:02:57;;;;;;;5.17;1.50;;;;;;;;;;5052065;28;20519;-60
2023/04/23 13:05:23;;;;;;;5.27;1.67;;;;;;;;;;5052255;28;20056;-59
2023/04/23 13:07:49;;;;;;;8.40;2.13;;;;;;;;;;5052130;28;20094;-60
2023/04/23 13:10:16;;;;;;;7.83;2.30;;;;;;;;;;5051743;28;20040;-60
2023/04/23 13:12:42;;;;;;;7.73;1.60;;;;;;;;;;5051994;28;20259;-60
2023/04/23 13:15:10;;;;;;;6.70;1.97;;;;;;;;;;5068610;28;20083;-60
2023/04/23 13:17:36;;;;;;;5.47;1.20;;;;;;;;;;5072179;28;20056;-60
2023/04/23 13:20:03;;;;;;;4.43;1.30;;;;;;;;;;5071786;28;20411;-60
2023/04/23 13:22:30;;;;;;;6.57;1.93;;;;;;;;;;5071976;28;20563;-59
2023/04/23 13:24:56;;;;;;;6.87;1.93;;;;;;;;;;5071277;28;20056;-60
2023/04/23 13:27:27;;;;;;;5.90;1.63;;;;;;;;;;5071782;28;20291;-60
2023/04/23 13:29:53;;;;;;;6.77;1.60;;;;;;;;;;5070436;28;20063;-60
2023/04/23 13:32:19;;;;;;;5.63;1.67;;;;;;;;;;5071706;28;20049;-60
2023/04/23 13:34:45;;;;;;;7.23;1.67;;;;;;;;;;5071241;28;20090;-60
2023/04/23 13:37:11;;;;;;;6.90;1.70;;;;;;;;;;5071834;28;20151;-60
2023/04/23 13:39:38;;;;;;;6.33;1.47;;;;;;;;;;5071646;28;20048;-60
2023/04/23 13:42:04;;;;;;;5.73;1.63;;;;;;;;;;5071770;28;20134;-60
2023/04/23 13:44:33;;;;;;;7.30;1.97;;;;;;;;;;5071071;28;20044;-60
2023/04/23 13:46:59;;;;;;;7.33;1.50;;;;;;;;;;5071193;28;20049;-61
2023/04/23 13:49:25;;;;;;;5.37;1.43;;;;;;;;;;5071443;28;20078;-60
2023/04/23 13:51:53;;;;;;;6.37;1.93;;;;;;;;;;5071039;28;20150;-60
2023/04/23 13:54:19;;;;;;;5.97;1.83;;;;;;;;;;5071081;28;20494;-60
2023/04/23 13:56:45;;;;;;;8.63;1.93;;;;;;;;;;5071229;28;20364;-60
2023/04/23 13:59:12;;;;;;;5.67;1.50;;;;;;;;;;5071362;28;20044;-60
2023/04/23 14:01:38;;;;;;;6.73;1.57;;;;;;;;;;5070851;28;20052;-60
2023/04/23 14:04:04;;;;;;;4.90;1.77;;;;;;;;;;5071171;28;20067;-60
2023/04/23 14:06:30;;;;;;;5.63;1.80;;;;;;;;;;5071173;28;20125;-60
2023/04/23 14:08:56;;;;;;;9.03;1.90;;;;;;;;;;5071106;28;20055;-61
2023/04/23 14:11:23;;;;;;;9.33;2.00;;;;;;;;;;5070843;28;20525;-60